sensor_id;sensor_type;location;lat;lon;timestamp;temperature;humidity
19755;DHT22;10036;47.812;9.274;2023-12-07T00:01:33;1.70;99.90
19755;DHT22;10036;47.812;9.274;2023-12-07T00:04:00;1.70;99.90
19755;DHT22;10036;47.812;9.274;2023-12-07T00:06:27;1.70;99.90
19755;DHT22;10036;47.812;9.274;2023-12-07T00:08:54;1.70;99.90
19755;DHT22;10036;47.812;9.274;2023-12-07T00:11:23;1.70;99.90
19755;DHT22;10036;47.812;9.274;2023-12-07T00:13:50;1.70;99.90
19755;DHT22;10036;47.812;9.274;2023-12-07T00:16:17;1.70;99.90
19755;DHT22;10036;47.812;9.274;2023-12-07T00:18:44;1.70;99.90
19755;DHT22;10036;47.812;9.274;2023-12-07T00:21:11;1.70;99.90
19755;DHT22;10036;47.812;9.274;2023-12-07T00:23:38;1.80;99.90
19755;DHT22;10036;47.812;9.274;2023-12-07T00:26:05;1.80;99.90
19755;DHT22;10036;47.812;9.274;2023-12-07T00:28:33;1.80;99.90
19755;DHT22;10036;47.812;9.274;2023-12-07T00:31:00;1.80;99.90
19755;DHT22;10036;47.812;9.274;2023-12-07T00:33:27;1.70;99.90
19755;DHT22;10036;47.812;9.274;2023-12-07T00:35:54;1.70;99.90
19755;DHT22;10036;47.812;9.274;2023-12-07T00:38:21;1.60;99.90
19755;DHT22;10036;47.812;9.274;2023-12-07T00:40:48;1.60;99.90
19755;DHT22;10036;47.812;9.274;2023-12-07T00:43:15;1.60;99.90
19755;DHT22;10036;47.812;9.274;2023-12-07T00:45:43;1.70;99.90
19755;DHT22;10036;47.812;9.274;2023-12-07T00:48:10;1.80;99.90
19755;DHT22;10036;47.812;9.274;2023-12-07T00:50:37;1.80;99.90
19755;DHT22;10036;47.812;9.274;2023-12-07T00:53:04;1.80;99.90
19755;DHT22;10036;47.812;9.274;2023-12-07T00:55:31;1.80;99.90
19755;DHT22;10036;47.812;9.274;2023-12-07T00:57:58;1.80;99.90
19755;DHT22;10036;47.812;9.274;2023-12-07T01:00:27;1.90;99.90
19755;DHT22;10036;47.812;9.274;2023-12-07T01:02:55;1.90;99.90
19755;DHT22;10036;47.812;9.274;2023-12-07T01:05:22;1.80;99.90
19755;DHT22;10036;47.812;9.274;2023-12-07T01:07:50;1.80;99.90
19755;DHT22;10036;47.812;9.274;2023-12-07T01:10:17;1.80;99.90
19755;DHT22;10036;47.812;9.274;2023-12-07T01:12:44;1.80;99.90
19755;DHT22;10036;47.812;9.274;2023-12-07T01:15:11;1.80;99.90
19755;DHT22;10036;47.812;9.274;2023-12-07T01:17:40;1.90;99.90
19755;DHT22;10036;47.812;9.274;2023-12-07T01:20:08;1.90;99.90
19755;DHT22;10036;47.812;9.274;2023-12-07T01:22:39;1.80;99.90
19755;DHT22;10036;47.812;9.274;2023-12-07T01:25:07;1.80;99.90
19755;DHT22;10036;47.812;9.274;2023-12-07T01:27:34;1.80;99.90
19755;DHT22;10036;47.812;9.274;2023-12-07T01:30:01;1.80;99.90
19755;DHT22;10036;47.812;9.274;2023-12-07T01:32:29;1.80;99.90
19755;DHT22;10036;47.812;9.274;2023-12-07T01:34:55;1.80;99.90
19755;DHT22;10036;47.812;9.274;2023-12-07T01:37:24;1.80;99.90
19755;DHT22;10036;47.812;9.274;2023-12-07T01:39:51;1.70;99.90
19755;DHT22;10036;47.812;9.274;2023-12-07T01:42:17;1.60;99.90
19755;DHT22;10036;47.812;9.274;2023-12-07T01:44:44;1.50;99.90
19755;DHT22;10036;47.812;9.274;2023-12-07T01:47:11;1.40;99.90
19755;DHT22;10036;47.812;9.274;2023-12-07T01:49:39;1.60;99.90
19755;DHT22;10036;47.812;9.274;2023-12-07T01:52:07;1.50;99.90
19755;DHT22;10036;47.812;9.274;2023-12-07T01:54:37;1.60;99.90
19755;DHT22;10036;47.812;9.274;2023-12-07T01:57:04;1.70;99.90
19755;DHT22;10036;47.812;9.274;2023-12-07T01:59:32;1.70;99.90
19755;DHT22;10036;47.812;9.274;2023-12-07T02:01:59;1.70;99.90
19755;DHT22;10036;47.812;9.274;2023-12-07T02:04:26;1.70;99.90
19755;DHT22;10036;47.812;9.274;2023-12-07T02:06:57;1.70;99.90
19755;DHT22;10036;47.812;9.274;2023-12-07T02:09:24;1.60;99.90
19755;DHT22;10036;47.812;9.274;2023-12-07T02:11:52;1.50;99.90
19755;DHT22;10036;47.812;9.274;2023-12-07T02:14:19;1.60;99.90
19755;DHT22;10036;47.812;9.274;2023-12-07T02:16:50;1.60;99.90
19755;DHT22;10036;47.812;9.274;2023-12-07T02:19:32;1.60;99.90
19755;DHT22;10036;47.812;9.274;2023-12-07T02:22:04;1.60;99.90
19755;DHT22;10036;47.812;9.274;2023-12-07T02:24:37;1.60;99.90
19755;DHT22;10036;47.812;9.274;2023-12-07T02:27:06;1.60;99.90
19755;DHT22;10036;47.812;9.274;2023-12-07T02:29:33;1.70;99.90
19755;DHT22;10036;47.812;9.274;2023-12-07T02:31:59;1.60;99.90
19755;DHT22;10036;47.812;9.274;2023-12-07T02:34:26;1.40;99.90
19755;DHT22;10036;47.812;9.274;2023-12-07T02:36:54;1.40;99.90
19755;DHT22;10036;47.812;9.274;2023-12-07T02:39:23;1.30;99.90
19755;DHT22;10036;47.812;9.274;2023-12-07T02:41:52;1.20;99.90
19755;DHT22;10036;47.812;9.274;2023-12-07T02:44:21;1.20;99.90
19755;DHT22;10036;47.812;9.274;2023-12-07T02:46:48;1.20;99.90
19755;DHT22;10036;47.812;9.274;2023-12-07T02:49:15;1.20;99.90
19755;DHT22;10036;47.812;9.274;2023-12-07T02:51:42;1.20;99.90
19755;DHT22;10036;47.812;9.274;2023-12-07T02:54:09;1.10;99.90
19755;DHT22;10036;47.812;9.274;2023-12-07T02:56:36;1.00;99.90
19755;DHT22;10036;47.812;9.274;2023-12-07T02:59:03;0.90;99.90
19755;DHT22;10036;47.812;9.274;2023-12-07T03:01:31;0.80;99.90
19755;DHT22;10036;47.812;9.274;2023-12-07T03:03:58;0.90;99.90
19755;DHT22;10036;47.812;9.274;2023-12-07T03:06:25;0.80;99.90
19755;DHT22;10036;47.812;9.274;2023-12-07T03:08:52;0.90;99.90
19755;DHT22;10036;47.812;9.274;2023-12-07T03:11:18;1.00;99.90
19755;DHT22;10036;47.812;9.274;2023-12-07T03:13:45;1.00;99.90
19755;DHT22;10036;47.812;9.274;2023-12-07T03:16:12;1.10;99.90
19755;DHT22;10036;47.812;9.274;2023-12-07T03:18:40;1.10;99.90
19755;DHT22;10036;47.812;9.274;2023-12-07T03:21:07;1.20;99.90
19755;DHT22;10036;47.812;9.274;2023-12-07T03:23:34;1.20;99.90
19755;DHT22;10036;47.812;9.274;2023-12-07T03:26:02;1.20;99.90
19755;DHT22;10036;47.812;9.274;2023-12-07T03:28:29;1.20;99.90
19755;DHT22;10036;47.812;9.274;2023-12-07T03:30:56;1.20;99.90
19755;DHT22;10036;47.812;9.274;2023-12-07T03:33:22;1.20;99.90
19755;DHT22;10036;47.812;9.274;2023-12-07T03:35:51;1.20;99.90
19755;DHT22;10036;47.812;9.274;2023-12-07T03:38:18;1.10;99.90
19755;DHT22;10036;47.812;9.274;2023-12-07T03:40:44;1.10;99.90
19755;DHT22;10036;47.812;9.274;2023-12-07T03:43:13;1.10;99.90
19755;DHT22;10036;47.812;9.274;2023-12-07T03:45:40;1.10;99.90
19755;DHT22;10036;47.812;9.274;2023-12-07T03:48:07;1.10;99.90
19755;DHT22;10036;47.812;9.274;2023-12-07T03:50:34;1.20;99.90
19755;DHT22;10036;47.812;9.274;2023-12-07T03:53:02;1.10;99.90
19755;DHT22;10036;47.812;9.274;2023-12-07T03:55:29;1.10;99.90
19755;DHT22;10036;47.812;9.274;2023-12-07T03:57:56;1.20;99.90
19755;DHT22;10036;47.812;9.274;2023-12-07T04:00:22;1.20;99.90
19755;DHT22;10036;47.812;9.274;2023-12-07T04:02:48;1.10;99.90
19755;DHT22;10036;47.812;9.274;2023-12-07T04:05:15;1.10;99.90
19755;DHT22;10036;47.812;9.274;2023-12-07T04:07:42;0.90;99.90
19755;DHT22;10036;47.812;9.274;2023-12-07T04:10:11;0.80;99.90
19755;DHT22;10036;47.812;9.274;2023-12-07T04:12:38;0.70;99.90
19755;DHT22;10036;47.812;9.274;2023-12-07T04:15:05;0.70;99.90
19755;DHT22;10036;47.812;9.274;2023-12-07T04:17:32;0.70;99.90
19755;DHT22;10036;47.812;9.274;2023-12-07T04:19:59;0.60;99.90
19755;DHT22;10036;47.812;9.274;2023-12-07T04:22:26;0.60;99.90
19755;DHT22;10036;47.812;9.274;2023-12-07T04:24:54;0.50;99.90
19755;DHT22;10036;47.812;9.274;2023-12-07T04:27:22;0.60;99.90
19755;DHT22;10036;47.812;9.274;2023-12-07T04:29:49;0.70;99.90
19755;DHT22;10036;47.812;9.274;2023-12-07T04:32:16;0.70;99.90
19755;DHT22;10036;47.812;9.274;2023-12-07T04:34:43;0.70;99.90
19755;DHT22;10036;47.812;9.274;2023-12-07T04:37:10;0.70;99.90
19755;DHT22;10036;47.812;9.274;2023-12-07T04:39:37;0.80;99.90
19755;DHT22;10036;47.812;9.274;2023-12-07T04:42:04;0.80;99.90
19755;DHT22;10036;47.812;9.274;2023-12-07T04:44:32;0.80;99.90
19755;DHT22;10036;47.812;9.274;2023-12-07T04:46:59;0.80;99.90
19755;DHT22;10036;47.812;9.274;2023-12-07T04:49:26;0.80;99.90
19755;DHT22;10036;47.812;9.274;2023-12-07T04:51:53;0.80;99.90
19755;DHT22;10036;47.812;9.274;2023-12-07T04:54:20;0.90;99.90
19755;DHT22;10036;47.812;9.274;2023-12-07T04:56:49;0.70;99.90
19755;DHT22;10036;47.812;9.274;2023-12-07T04:59:16;0.60;99.90
19755;DHT22;10036;47.812;9.274;2023-12-07T05:01:44;0.50;99.90
19755;DHT22;10036;47.812;9.274;2023-12-07T05:04:12;0.50;99.90
19755;DHT22;10036;47.812;9.274;2023-12-07T05:06:38;0.60;99.90
19755;DHT22;10036;47.812;9.274;2023-12-07T05:09:05;0.60;99.90
19755;DHT22;10036;47.812;9.274;2023-12-07T05:11:34;0.70;99.90
19755;DHT22;10036;47.812;9.274;2023-12-07T05:14:03;0.60;99.90
19755;DHT22;10036;47.812;9.274;2023-12-07T05:16:30;0.60;99.90
19755;DHT22;10036;47.812;9.274;2023-12-07T05:18:58;0.50;99.90
19755;DHT22;10036;47.812;9.274;2023-12-07T05:21:25;0.40;99.90
19755;DHT22;10036;47.812;9.274;2023-12-07T05:23:52;0.20;99.90
19755;DHT22;10036;47.812;9.274;2023-12-07T05:26:18;0.30;99.90
19755;DHT22;10036;47.812;9.274;2023-12-07T05:28:47;0.20;99.90
19755;DHT22;10036;47.812;9.274;2023-12-07T05:31:16;0.10;99.90
19755;DHT22;10036;47.812;9.274;2023-12-07T05:33:43;0.00;99.90
19755;DHT22;10036;47.812;9.274;2023-12-07T05:36:11;-0.10;99.90
19755;DHT22;10036;47.812;9.274;2023-12-07T05:38:38;0.00;99.90
19755;DHT22;10036;47.812;9.274;2023-12-07T05:41:05;0.00;99.90
19755;DHT22;10036;47.812;9.274;2023-12-07T05:43:32;0.00;99.90
19755;DHT22;10036;47.812;9.274;2023-12-07T05:46:00;0.10;99.90
19755;DHT22;10036;47.812;9.274;2023-12-07T05:48:27;-0.10;99.90
19755;DHT22;10036;47.812;9.274;2023-12-07T05:50:53;-0.20;99.90
19755;DHT22;10036;47.812;9.274;2023-12-07T05:53:22;-0.30;99.90
19755;DHT22;10036;47.812;9.274;2023-12-07T05:55:49;-0.20;99.90
19755;DHT22;10036;47.812;9.274;2023-12-07T05:58:16;-0.10;99.90
19755;DHT22;10036;47.812;9.274;2023-12-07T06:00:44;-0.10;99.90
19755;DHT22;10036;47.812;9.274;2023-12-07T06:03:12;0.10;99.90
19755;DHT22;10036;47.812;9.274;2023-12-07T06:05:39;0.00;99.90
19755;DHT22;10036;47.812;9.274;2023-12-07T06:08:07;-0.10;99.90
19755;DHT22;10036;47.812;9.274;2023-12-07T06:10:35;-0.10;99.90
19755;DHT22;10036;47.812;9.274;2023-12-07T06:13:02;-0.10;99.90
19755;DHT22;10036;47.812;9.274;2023-12-07T06:15:30;-0.20;99.90
19755;DHT22;10036;47.812;9.274;2023-12-07T06:17:58;0.00;99.90
19755;DHT22;10036;47.812;9.274;2023-12-07T06:20:25;0.10;99.90
19755;DHT22;10036;47.812;9.274;2023-12-07T06:22:52;0.10;99.90
19755;DHT22;10036;47.812;9.274;2023-12-07T06:25:19;0.20;99.90
19755;DHT22;10036;47.812;9.274;2023-12-07T06:27:47;0.20;99.90
19755;DHT22;10036;47.812;9.274;2023-12-07T06:30:14;0.20;99.90
19755;DHT22;10036;47.812;9.274;2023-12-07T06:32:41;0.10;99.90
19755;DHT22;10036;47.812;9.274;2023-12-07T06:35:09;0.10;99.90
19755;DHT22;10036;47.812;9.274;2023-12-07T06:37:37;0.10;99.90
19755;DHT22;10036;47.812;9.274;2023-12-07T06:40:06;0.30;99.90
19755;DHT22;10036;47.812;9.274;2023-12-07T06:42:34;0.10;99.90
19755;DHT22;10036;47.812;9.274;2023-12-07T06:45:03;0.10;99.90
19755;DHT22;10036;47.812;9.274;2023-12-07T06:47:31;0.10;99.90
19755;DHT22;10036;47.812;9.274;2023-12-07T06:49:58;-0.10;99.90
19755;DHT22;10036;47.812;9.274;2023-12-07T06:52:25;-0.20;99.90
19755;DHT22;10036;47.812;9.274;2023-12-07T06:54:52;-0.30;99.90
19755;DHT22;10036;47.812;9.274;2023-12-07T06:57:21;-0.20;99.90
19755;DHT22;10036;47.812;9.274;2023-12-07T06:59:47;-0.40;99.90
19755;DHT22;10036;47.812;9.274;2023-12-07T07:02:16;-0.30;99.90
19755;DHT22;10036;47.812;9.274;2023-12-07T07:04:43;-0.20;99.90
19755;DHT22;10036;47.812;9.274;2023-12-07T07:07:10;-0.10;99.90
19755;DHT22;10036;47.812;9.274;2023-12-07T07:09:37;0.00;99.90
19755;DHT22;10036;47.812;9.274;2023-12-07T07:12:04;0.00;99.90
19755;DHT22;10036;47.812;9.274;2023-12-07T07:14:31;-0.20;99.90
19755;DHT22;10036;47.812;9.274;2023-12-07T07:16:58;-0.20;99.90
19755;DHT22;10036;47.812;9.274;2023-12-07T07:19:26;-0.20;99.90
19755;DHT22;10036;47.812;9.274;2023-12-07T07:21:54;-0.20;99.90
19755;DHT22;10036;47.812;9.274;2023-12-07T07:24:21;-0.20;99.90
19755;DHT22;10036;47.812;9.274;2023-12-07T07:26:48;-0.30;99.90
19755;DHT22;10036;47.812;9.274;2023-12-07T07:29:15;-0.30;99.90
19755;DHT22;10036;47.812;9.274;2023-12-07T07:31:42;-0.40;99.90
19755;DHT22;10036;47.812;9.274;2023-12-07T07:34:09;-0.50;99.90
19755;DHT22;10036;47.812;9.274;2023-12-07T07:36:37;-0.40;99.90
19755;DHT22;10036;47.812;9.274;2023-12-07T07:39:04;-0.30;99.90
19755;DHT22;10036;47.812;9.274;2023-12-07T07:41:33;-0.30;99.90
19755;DHT22;10036;47.812;9.274;2023-12-07T07:44:00;-0.20;99.90
19755;DHT22;10036;47.812;9.274;2023-12-07T07:46:26;-0.20;99.90
19755;DHT22;10036;47.812;9.274;2023-12-07T07:48:53;-0.20;99.90
19755;DHT22;10036;47.812;9.274;2023-12-07T07:51:20;-0.20;99.90
19755;DHT22;10036;47.812;9.274;2023-12-07T07:53:48;-0.10;99.90
19755;DHT22;10036;47.812;9.274;2023-12-07T07:56:15;-0.10;99.90
19755;DHT22;10036;47.812;9.274;2023-12-07T07:58:42;-0.20;99.90
19755;DHT22;10036;47.812;9.274;2023-12-07T08:01:10;-0.30;99.90
19755;DHT22;10036;47.812;9.274;2023-12-07T08:03:38;-0.30;99.90
19755;DHT22;10036;47.812;9.274;2023-12-07T08:06:07;-0.40;99.90
19755;DHT22;10036;47.812;9.274;2023-12-07T08:08:34;-0.40;99.90
19755;DHT22;10036;47.812;9.274;2023-12-07T08:11:03;-0.20;99.90
19755;DHT22;10036;47.812;9.274;2023-12-07T08:13:30;-0.20;99.90
19755;DHT22;10036;47.812;9.274;2023-12-07T08:15:57;-0.20;99.90
19755;DHT22;10036;47.812;9.274;2023-12-07T08:18:24;-0.20;99.90
19755;DHT22;10036;47.812;9.274;2023-12-07T08:20:51;-0.10;99.90
19755;DHT22;10036;47.812;9.274;2023-12-07T08:23:18;0.00;99.90
19755;DHT22;10036;47.812;9.274;2023-12-07T08:25:45;0.10;99.90
19755;DHT22;10036;47.812;9.274;2023-12-07T08:28:15;0.10;99.90
19755;DHT22;10036;47.812;9.274;2023-12-07T08:30:41;0.20;99.90
19755;DHT22;10036;47.812;9.274;2023-12-07T08:33:08;0.20;99.90
19755;DHT22;10036;47.812;9.274;2023-12-07T08:35:35;0.30;99.90
19755;DHT22;10036;47.812;9.274;2023-12-07T08:38:02;0.30;99.90
19755;DHT22;10036;47.812;9.274;2023-12-07T08:40:30;0.30;99.90
19755;DHT22;10036;47.812;9.274;2023-12-07T08:42:57;0.40;99.90
19755;DHT22;10036;47.812;9.274;2023-12-07T08:45:25;0.40;99.90
19755;DHT22;10036;47.812;9.274;2023-12-07T08:47:52;0.40;99.90
19755;DHT22;10036;47.812;9.274;2023-12-07T08:50:19;0.40;99.90
19755;DHT22;10036;47.812;9.274;2023-12-07T08:52:46;0.40;99.90
19755;DHT22;10036;47.812;9.274;2023-12-07T08:55:13;0.60;99.90
19755;DHT22;10036;47.812;9.274;2023-12-07T08:57:41;0.60;99.90
19755;DHT22;10036;47.812;9.274;2023-12-07T09:00:08;0.70;99.90
19755;DHT22;10036;47.812;9.274;2023-12-07T09:02:39;0.70;99.90
19755;DHT22;10036;47.812;9.274;2023-12-07T09:05:07;0.80;99.90
19755;DHT22;10036;47.812;9.274;2023-12-07T09:07:34;0.90;99.90
19755;DHT22;10036;47.812;9.274;2023-12-07T09:10:02;0.90;99.90
19755;DHT22;10036;47.812;9.274;2023-12-07T09:12:29;0.90;99.90
19755;DHT22;10036;47.812;9.274;2023-12-07T09:14:56;1.00;99.90
19755;DHT22;10036;47.812;9.274;2023-12-07T09:17:23;1.00;99.90
19755;DHT22;10036;47.812;9.274;2023-12-07T09:19:51;1.10;99.90
19755;DHT22;10036;47.812;9.274;2023-12-07T09:22:18;1.10;99.90
19755;DHT22;10036;47.812;9.274;2023-12-07T09:24:45;1.20;99.90
19755;DHT22;10036;47.812;9.274;2023-12-07T09:27:13;1.40;99.90
19755;DHT22;10036;47.812;9.274;2023-12-07T09:29:40;1.50;99.90
19755;DHT22;10036;47.812;9.274;2023-12-07T09:32:07;1.80;99.90
19755;DHT22;10036;47.812;9.274;2023-12-07T09:34:34;1.80;99.90
19755;DHT22;10036;47.812;9.274;2023-12-07T09:37:09;1.90;99.90
19755;DHT22;10036;47.812;9.274;2023-12-07T09:39:36;2.10;99.90
19755;DHT22;10036;47.812;9.274;2023-12-07T09:42:03;2.10;99.90
19755;DHT22;10036;47.812;9.274;2023-12-07T09:44:30;2.10;99.90
19755;DHT22;10036;47.812;9.274;2023-12-07T09:46:57;2.20;99.90
19755;DHT22;10036;47.812;9.274;2023-12-07T09:49:24;2.10;99.90
19755;DHT22;10036;47.812;9.274;2023-12-07T09:51:52;2.20;99.90
19755;DHT22;10036;47.812;9.274;2023-12-07T09:54:23;2.10;99.90
19755;DHT22;10036;47.812;9.274;2023-12-07T09:56:50;2.10;99.90
19755;DHT22;10036;47.812;9.274;2023-12-07T09:59:20;2.10;99.90
19755;DHT22;10036;47.812;9.274;2023-12-07T10:01:47;2.10;99.90
19755;DHT22;10036;47.812;9.274;2023-12-07T10:04:18;2.10;99.90
19755;DHT22;10036;47.812;9.274;2023-12-07T10:06:46;2.10;99.90
19755;DHT22;10036;47.812;9.274;2023-12-07T10:09:13;2.00;99.90
19755;DHT22;10036;47.812;9.274;2023-12-07T10:11:42;2.10;99.90
19755;DHT22;10036;47.812;9.274;2023-12-07T10:14:10;2.10;99.90
19755;DHT22;10036;47.812;9.274;2023-12-07T10:16:37;2.20;99.90
19755;DHT22;10036;47.812;9.274;2023-12-07T10:19:14;2.30;99.90
19755;DHT22;10036;47.812;9.274;2023-12-07T10:21:43;2.40;99.90
19755;DHT22;10036;47.812;9.274;2023-12-07T10:24:10;2.40;99.90
19755;DHT22;10036;47.812;9.274;2023-12-07T10:26:38;2.50;99.90
19755;DHT22;10036;47.812;9.274;2023-12-07T10:29:07;2.70;99.90
19755;DHT22;10036;47.812;9.274;2023-12-07T10:31:34;2.70;99.90
19755;DHT22;10036;47.812;9.274;2023-12-07T10:34:01;2.70;99.90
19755;DHT22;10036;47.812;9.274;2023-12-07T10:36:28;2.70;99.90
19755;DHT22;10036;47.812;9.274;2023-12-07T10:38:55;2.80;99.90
19755;DHT22;10036;47.812;9.274;2023-12-07T10:41:23;2.80;99.90
19755;DHT22;10036;47.812;9.274;2023-12-07T10:43:52;2.90;99.90
19755;DHT22;10036;47.812;9.274;2023-12-07T10:46:22;3.00;99.90
19755;DHT22;10036;47.812;9.274;2023-12-07T10:48:53;3.10;99.90
19755;DHT22;10036;47.812;9.274;2023-12-07T10:51:26;3.10;99.90
19755;DHT22;10036;47.812;9.274;2023-12-07T10:53:57;3.20;99.90
19755;DHT22;10036;47.812;9.274;2023-12-07T10:56:29;3.30;99.90
19755;DHT22;10036;47.812;9.274;2023-12-07T10:58:59;3.30;99.90
19755;DHT22;10036;47.812;9.274;2023-12-07T11:01:27;3.30;99.90
19755;DHT22;10036;47.812;9.274;2023-12-07T11:03:56;3.40;99.90
19755;DHT22;10036;47.812;9.274;2023-12-07T11:06:23;3.50;99.90
19755;DHT22;10036;47.812;9.274;2023-12-07T11:08:54;3.50;99.90
19755;DHT22;10036;47.812;9.274;2023-12-07T11:11:27;3.50;99.90
19755;DHT22;10036;47.812;9.274;2023-12-07T11:13:58;3.50;99.90
19755;DHT22;10036;47.812;9.274;2023-12-07T11:16:31;3.60;99.90
19755;DHT22;10036;47.812;9.274;2023-12-07T11:18:58;3.60;99.90
19755;DHT22;10036;47.812;9.274;2023-12-07T11:21:25;3.70;99.90
19755;DHT22;10036;47.812;9.274;2023-12-07T11:23:53;3.70;99.90
19755;DHT22;10036;47.812;9.274;2023-12-07T11:26:20;3.80;99.90
19755;DHT22;10036;47.812;9.274;2023-12-07T11:28:49;3.80;99.90
19755;DHT22;10036;47.812;9.274;2023-12-07T11:31:17;3.80;99.90
19755;DHT22;10036;47.812;9.274;2023-12-07T11:33:45;3.80;99.90
19755;DHT22;10036;47.812;9.274;2023-12-07T11:36:14;3.80;99.90
19755;DHT22;10036;47.812;9.274;2023-12-07T11:39:15;3.80;99.90
19755;DHT22;10036;47.812;9.274;2023-12-07T11:41:44;3.90;99.90
19755;DHT22;10036;47.812;9.274;2023-12-07T11:44:12;3.90;99.90
19755;DHT22;10036;47.812;9.274;2023-12-07T11:46:39;4.00;99.90
19755;DHT22;10036;47.812;9.274;2023-12-07T11:49:08;4.00;99.90
19755;DHT22;10036;47.812;9.274;2023-12-07T11:51:36;4.00;99.90
19755;DHT22;10036;47.812;9.274;2023-12-07T11:54:04;4.00;99.90
19755;DHT22;10036;47.812;9.274;2023-12-07T11:56:31;4.10;99.90
19755;DHT22;10036;47.812;9.274;2023-12-07T11:58:59;4.10;99.90
19755;DHT22;10036;47.812;9.274;2023-12-07T12:01:26;4.10;99.90
19755;DHT22;10036;47.812;9.274;2023-12-07T12:03:55;4.20;99.90
19755;DHT22;10036;47.812;9.274;2023-12-07T12:06:24;4.30;99.90
19755;DHT22;10036;47.812;9.274;2023-12-07T12:08:52;4.30;99.90
19755;DHT22;10036;47.812;9.274;2023-12-07T12:11:19;4.30;99.90
19755;DHT22;10036;47.812;9.274;2023-12-07T12:13:46;4.30;99.90
19755;DHT22;10036;47.812;9.274;2023-12-07T12:16:15;4.30;99.90
19755;DHT22;10036;47.812;9.274;2023-12-07T12:18:42;4.40;99.90
19755;DHT22;10036;47.812;9.274;2023-12-07T12:21:09;4.40;99.90
19755;DHT22;10036;47.812;9.274;2023-12-07T12:23:37;4.40;99.90
19755;DHT22;10036;47.812;9.274;2023-12-07T12:26:06;4.30;99.90
19755;DHT22;10036;47.812;9.274;2023-12-07T12:28:33;4.40;99.90
19755;DHT22;10036;47.812;9.274;2023-12-07T12:31:06;4.40;99.90
19755;DHT22;10036;47.812;9.274;2023-12-07T12:33:36;4.50;99.90
19755;DHT22;10036;47.812;9.274;2023-12-07T12:36:06;4.30;99.90
19755;DHT22;10036;47.812;9.274;2023-12-07T12:38:33;4.30;99.90
19755;DHT22;10036;47.812;9.274;2023-12-07T12:41:01;4.30;99.90
19755;DHT22;10036;47.812;9.274;2023-12-07T12:43:31;4.30;99.90
19755;DHT22;10036;47.812;9.274;2023-12-07T12:45:58;4.50;99.90
19755;DHT22;10036;47.812;9.274;2023-12-07T12:48:25;4.40;99.90
19755;DHT22;10036;47.812;9.274;2023-12-07T12:50:52;4.30;99.90
19755;DHT22;10036;47.812;9.274;2023-12-07T12:53:20;4.40;99.90
19755;DHT22;10036;47.812;9.274;2023-12-07T12:55:47;4.40;99.90
19755;DHT22;10036;47.812;9.274;2023-12-07T12:58:16;4.50;99.90
19755;DHT22;10036;47.812;9.274;2023-12-07T13:00:43;4.50;99.90
19755;DHT22;10036;47.812;9.274;2023-12-07T13:03:10;4.50;99.90
19755;DHT22;10036;47.812;9.274;2023-12-07T13:05:38;4.50;99.90
19755;DHT22;10036;47.812;9.274;2023-12-07T13:08:05;4.50;99.90
19755;DHT22;10036;47.812;9.274;2023-12-07T13:10:33;4.50;99.90
19755;DHT22;10036;47.812;9.274;2023-12-07T13:13:00;4.50;99.90
19755;DHT22;10036;47.812;9.274;2023-12-07T13:15:30;4.50;99.90
19755;DHT22;10036;47.812;9.274;2023-12-07T13:17:57;4.40;99.90
19755;DHT22;10036;47.812;9.274;2023-12-07T13:20:24;4.40;99.90
19755;DHT22;10036;47.812;9.274;2023-12-07T13:22:50;4.40;99.90
19755;DHT22;10036;47.812;9.274;2023-12-07T13:25:17;4.50;99.90
19755;DHT22;10036;47.812;9.274;2023-12-07T13:27:44;4.40;99.90
19755;DHT22;10036;47.812;9.274;2023-12-07T13:30:11;4.60;99.90
19755;DHT22;10036;47.812;9.274;2023-12-07T13:32:40;4.40;99.90
19755;DHT22;10036;47.812;9.274;2023-12-07T13:35:07;4.40;99.90
19755;DHT22;10036;47.812;9.274;2023-12-07T13:37:34;4.40;99.90
19755;DHT22;10036;47.812;9.274;2023-12-07T13:40:02;4.50;99.90
19755;DHT22;10036;47.812;9.274;2023-12-07T13:42:30;4.50;99.90
19755;DHT22;10036;47.812;9.274;2023-12-07T13:44:58;4.50;99.90
19755;DHT22;10036;47.812;9.274;2023-12-07T13:47:26;4.50;99.90
19755;DHT22;10036;47.812;9.274;2023-12-07T13:49:58;4.50;99.90
19755;DHT22;10036;47.812;9.274;2023-12-07T13:52:26;4.40;99.90
19755;DHT22;10036;47.812;9.274;2023-12-07T13:54:54;4.60;99.90
19755;DHT22;10036;47.812;9.274;2023-12-07T13:57:21;4.50;99.90
19755;DHT22;10036;47.812;9.274;2023-12-07T13:59:49;4.50;99.90
19755;DHT22;10036;47.812;9.274;2023-12-07T14:02:16;4.60;99.90
19755;DHT22;10036;47.812;9.274;2023-12-07T14:04:43;4.60;99.90
19755;DHT22;10036;47.812;9.274;2023-12-07T14:07:13;4.60;99.90
19755;DHT22;10036;47.812;9.274;2023-12-07T14:09:41;4.60;99.90
19755;DHT22;10036;47.812;9.274;2023-12-07T14:12:09;4.50;99.90
19755;DHT22;10036;47.812;9.274;2023-12-07T14:14:38;4.50;99.90
19755;DHT22;10036;47.812;9.274;2023-12-07T14:17:05;4.50;99.90
19755;DHT22;10036;47.812;9.274;2023-12-07T14:19:32;4.40;99.90
19755;DHT22;10036;47.812;9.274;2023-12-07T14:22:00;4.40;99.90
19755;DHT22;10036;47.812;9.274;2023-12-07T14:24:29;4.40;99.90
19755;DHT22;10036;47.812;9.274;2023-12-07T14:26:57;4.20;99.90
19755;DHT22;10036;47.812;9.274;2023-12-07T14:29:24;4.30;99.90
19755;DHT22;10036;47.812;9.274;2023-12-07T14:31:51;4.20;99.90
19755;DHT22;10036;47.812;9.274;2023-12-07T14:34:18;4.20;99.90
19755;DHT22;10036;47.812;9.274;2023-12-07T14:36:45;4.20;99.90
19755;DHT22;10036;47.812;9.274;2023-12-07T14:39:12;4.20;99.90
19755;DHT22;10036;47.812;9.274;2023-12-07T14:41:44;4.20;99.90
19755;DHT22;10036;47.812;9.274;2023-12-07T14:44:12;4.10;99.90
19755;DHT22;10036;47.812;9.274;2023-12-07T14:46:41;4.10;99.90
19755;DHT22;10036;47.812;9.274;2023-12-07T14:49:08;4.00;99.90
19755;DHT22;10036;47.812;9.274;2023-12-07T14:51:35;4.10;99.90
19755;DHT22;10036;47.812;9.274;2023-12-07T14:54:02;4.10;99.90
19755;DHT22;10036;47.812;9.274;2023-12-07T14:56:29;4.00;99.90
19755;DHT22;10036;47.812;9.274;2023-12-07T14:58:57;3.90;99.90
19755;DHT22;10036;47.812;9.274;2023-12-07T15:01:24;3.90;99.90
19755;DHT22;10036;47.812;9.274;2023-12-07T15:03:52;3.80;99.90
19755;DHT22;10036;47.812;9.274;2023-12-07T15:06:18;3.70;99.90
19755;DHT22;10036;47.812;9.274;2023-12-07T15:08:45;3.60;99.90
19755;DHT22;10036;47.812;9.274;2023-12-07T15:11:12;3.60;99.90
19755;DHT22;10036;47.812;9.274;2023-12-07T15:13:39;3.50;99.90
19755;DHT22;10036;47.812;9.274;2023-12-07T15:16:08;3.40;99.90
19755;DHT22;10036;47.812;9.274;2023-12-07T15:18:36;3.40;99.90
19755;DHT22;10036;47.812;9.274;2023-12-07T15:21:05;3.20;99.90
19755;DHT22;10036;47.812;9.274;2023-12-07T15:23:32;3.10;99.90
19755;DHT22;10036;47.812;9.274;2023-12-07T15:25:59;3.00;99.90
19755;DHT22;10036;47.812;9.274;2023-12-07T15:28:26;2.90;99.90
19755;DHT22;10036;47.812;9.274;2023-12-07T15:30:52;2.90;99.90
19755;DHT22;10036;47.812;9.274;2023-12-07T15:33:21;2.80;99.90
19755;DHT22;10036;47.812;9.274;2023-12-07T15:35:48;2.70;99.90
19755;DHT22;10036;47.812;9.274;2023-12-07T15:38:15;2.60;99.90
19755;DHT22;10036;47.812;9.274;2023-12-07T15:40:42;2.60;99.90
19755;DHT22;10036;47.812;9.274;2023-12-07T15:43:08;2.60;99.90
19755;DHT22;10036;47.812;9.274;2023-12-07T15:45:35;2.60;99.90
19755;DHT22;10036;47.812;9.274;2023-12-07T15:48:03;2.50;99.90